Time;durP1;ratioP1;P1;durP2;ratioP2;P2;SDS_P1;SDS_P2;PMS_P1;PMS_P2;Temp;Humidity;BMP_temperature;BMP_pressure;BME280_temperature;BME280_humidity;BME280_pressure;Samples;Min_cycle;Max_cycle;Signal;HPM_P1;HPM_P2
2022/12/02 00:02:26;;;;;;;47.90;42.60;;;;;;;4.04;100.00;102564.81;5145992;28;20054;-66
2022/12/02 00:05:04;;;;;;;51.88;42.85;;;;;;;4.15;100.00;102584.97;5145244;28;20026;-68
2022/12/02 00:07:36;;;;;;;53.92;43.33;;;;;;;4.17;100.00;102580.31;5146380;28;20061;-66
2022/12/02 00:10:25;;;;;;;45.65;40.72;;;;;;;4.19;100.00;102578.28;5146486;28;20037;-68
2022/12/02 00:13:07;;;;;;;52.63;46.07;;;;;;;4.18;100.00;102580.13;5145000;28;20034;-64
2022/12/02 00:15:43;;;;;;;55.47;44.85;;;;;;;4.18;100.00;102568.59;5146554;28;20026;-66
2022/12/02 00:18:15;;;;;;;51.10;42.80;;;;;;;4.18;100.00;102569.44;5145732;28;20027;-63
2022/12/02 00:20:46;;;;;;;49.35;43.78;;;;;;;4.18;100.00;102573.94;5145740;28;20050;-62
2022/12/02 00:23:17;;;;;;;53.15;46.63;;;;;;;4.16;100.00;102565.25;5145061;28;20027;-66
2022/12/02 00:25:50;;;;;;;53.42;45.53;;;;;;;4.15;100.00;102569.78;5146350;28;20218;-66
2022/12/02 00:28:20;;;;;;;53.08;47.33;;;;;;;4.14;100.00;102569.94;5145015;28;20054;-64
2022/12/02 00:30:51;;;;;;;50.83;43.83;;;;;;;4.00;100.00;102550.13;5145904;28;20513;-65
2022/12/02 00:33:21;;;;;;;57.92;44.95;;;;;;;4.06;100.00;102566.28;5145190;28;20023;-66
2022/12/02 00:35:51;;;;;;;47.80;42.67;;;;;;;4.09;100.00;102573.13;5145811;28;20030;-66
2022/12/02 00:38:22;;;;;;;54.47;45.70;;;;;;;4.02;100.00;102569.50;5145630;28;20053;-66
2022/12/02 00:40:52;;;;;;;59.40;47.38;;;;;;;4.07;100.00;102565.28;5145719;28;20407;-66
2022/12/02 00:49:10;;;;;;;57.30;45.72;;;;;;;3.96;100.00;102554.97;5145323;28;20070;-66
2022/12/02 00:51:41;;;;;;;55.20;44.60;;;;;;;3.98;100.00;102560.97;5146028;28;20027;-66
2022/12/02 00:54:13;;;;;;;49.22;43.22;;;;;;;3.72;100.00;102512.28;5145037;28;20037;-66
2022/12/02 00:56:43;;;;;;;57.75;49.22;;;;;;;3.99;100.00;102556.47;5145681;28;20539;-66
2022/12/02 00:59:13;;;;;;;49.65;43.63;;;;;;;3.91;100.00;102551.13;5145949;28;20051;-65
2022/12/02 01:01:44;;;;;;;51.17;46.05;;;;;;;3.99;100.00;102548.44;5145880;28;20062;-62
2022/12/02 01:04:14;;;;;;;53.25;44.03;;;;;;;3.92;100.00;102542.13;5144234;28;20027;-66
2022/12/02 01:06:45;;;;;;;48.42;43.40;;;;;;;3.99;100.00;102548.44;5145539;28;20491;-66
2022/12/02 01:09:15;;;;;;;58.33;44.63;;;;;;;3.98;100.00;102541.44;5145672;28;20443;-66
2022/12/02 01:11:46;;;;;;;49.67;44.35;;;;;;;3.66;100.00;102483.56;5145222;28;20084;-66
2022/12/02 01:14:16;;;;;;;51.58;44.25;;;;;;;3.90;100.00;102528.91;5144265;28;20031;-64
2022/12/02 01:16:47;;;;;;;43.85;39.08;;;;;;;3.95;100.00;102531.91;5145544;28;20034;-65
2022/12/02 01:19:17;;;;;;;51.88;43.47;;;;;;;3.97;100.00;102529.91;5144826;28;20081;-66
2022/12/02 01:21:47;;;;;;;54.90;43.88;;;;;;;4.01;100.00;102539.25;5145318;28;20445;-66
2022/12/02 01:24:18;;;;;;;53.00;46.92;;;;;;;3.99;100.00;102533.25;5144426;28;20211;-68
2022/12/02 01:26:48;;;;;;;49.28;41.78;;;;;;;3.76;100.00;102504.72;5145038;28;20067;-66
2022/12/02 01:29:19;;;;;;;50.70;42.72;;;;;;;3.96;100.00;102525.56;5145143;28;20019;-66
2022/12/02 01:31:49;;;;;;;49.40;43.72;;;;;;;3.98;100.00;102533.41;5145141;28;20571;-62
2022/12/02 01:34:19;;;;;;;52.40;41.40;;;;;;;3.95;100.00;102531.91;5145018;28;20030;-64
2022/12/02 01:36:50;;;;;;;44.42;39.75;;;;;;;3.93;100.00;102528.59;5143713;28;20026;-66
2022/12/02 01:39:20;;;;;;;54.03;43.78;;;;;;;3.95;100.00;102529.25;5144906;28;20122;-69
2022/12/02 01:41:50;;;;;;;49.58;41.22;;;;;;;3.97;100.00;102535.25;5144180;28;20077;-66
2022/12/02 01:44:21;;;;;;;56.63;42.63;;;;;;;3.98;100.00;102531.56;5144390;28;20529;-66
2022/12/02 01:46:51;;;;;;;45.25;40.30;;;;;;;3.91;100.00;102530.59;5144985;28;20479;-66
2022/12/02 01:49:22;;;;;;;47.95;42.97;;;;;;;3.96;100.00;102535.44;5144252;28;20074;-66
2022/12/02 01:51:53;;;;;;;58.53;46.20;;;;;;;3.90;100.00;102531.59;5144353;28;20018;-65
2022/12/02 01:54:24;;;;;;;47.95;42.83;;;;;;;3.94;100.00;102530.25;5143226;28;20455;-66
2022/12/02 01:56:54;;;;;;;48.47;42.58;;;;;;;3.96;100.00;102524.75;5144375;28;20087;-67
2022/12/02 01:59:25;;;;;;;58.67;46.20;;;;;;;4.00;100.00;102537.59;5144486;28;20394;-63
2022/12/02 02:01:56;;;;;;;54.72;42.88;;;;;;;3.99;100.00;102527.91;5143741;28;20027;-66
2022/12/02 02:04:26;;;;;;;47.50;40.05;;;;;;;3.97;100.00;102527.25;5144238;28;20073;-66
2022/12/02 02:06:56;;;;;;;51.65;42.13;;;;;;;3.98;100.00;102525.41;5144666;28;20487;-66
2022/12/02 02:09:27;;;;;;;55.10;43.60;;;;;;;3.95;100.00;102529.25;5143976;28;20491;-62
2022/12/02 02:11:57;;;;;;;47.22;42.20;;;;;;;3.96;100.00;102533.59;5143897;28;20022;-67
2022/12/02 02:14:28;;;;;;;51.47;42.60;;;;;;;3.97;100.00;102527.25;5143995;28;20023;-66
2022/12/02 02:16:58;;;;;;;50.20;42.05;;;;;;;3.96;100.00;102524.75;5144584;28;20472;-66
2022/12/02 02:19:29;;;;;;;56.03;41.28;;;;;;;3.90;100.00;102512.06;5144383;28;20039;-66
2022/12/02 02:22:03;;;;;;;53.28;43.38;;;;;;;3.97;100.00;102518.38;5143641;28;20058;-63
2022/12/02 02:24:33;;;;;;;46.42;40.58;;;;;;;3.98;100.00;102520.88;5143606;28;20535;-66
2022/12/02 02:27:04;;;;;;;57.30;43.13;;;;;;;3.96;100.00;102520.22;5144227;28;20035;-68
2022/12/02 02:29:34;;;;;;;47.67;40.17;;;;;;;4.00;100.00;102520.72;5144157;28;20110;-63
2022/12/02 02:32:05;;;;;;;47.97;40.70;;;;;;;4.02;100.00;102514.19;5143899;28;20022;-65
2022/12/02 02:34:35;;;;;;;57.47;43.88;;;;;;;3.70;100.00;102466.19;5143964;28;20027;-66
2022/12/02 02:37:06;;;;;;;58.83;46.83;;;;;;;4.02;100.00;102510.69;5144248;28;20490;-66
2022/12/02 02:39:36;;;;;;;45.45;40.58;;;;;;;4.02;100.00;102502.66;5144135;28;20082;-66
2022/12/02 02:42:06;;;;;;;50.72;45.30;;;;;;;3.99;100.00;102490.47;5141611;28;20511;-63
2022/12/02 02:44:37;;;;;;;57.88;49.03;;;;;;;4.06;100.00;102495.94;5143713;28;20033;-64
2022/12/02 02:47:07;;;;;;;63.00;43.72;;;;;;;4.04;100.00;102501.47;5143806;28;20026;-65
2022/12/02 02:49:38;;;;;;;54.63;45.50;;;;;;;4.09;100.00;102500.94;5144064;28;20122;-66
2022/12/02 02:52:08;;;;;;;52.00;46.67;;;;;;;4.08;100.00;102499.28;5143170;28;20507;-65
2022/12/02 02:54:39;;;;;;;58.08;44.13;;;;;;;4.05;100.00;102503.13;5144340;28;20031;-66
2022/12/02 02:57:09;;;;;;;68.13;48.70;;;;;;;3.95;100.00;102489.16;5143534;28;20023;-63
2022/12/02 02:59:41;;;;;;;71.38;54.33;;;;;;;4.03;100.00;102505.16;5143711;28;20383;-66
2022/12/02 03:02:13;;;;;;;77.10;54.22;;;;;;;3.97;100.00;102502.34;5146817;28;20031;-66
2022/12/02 03:04:43;;;;;;;70.65;54.45;;;;;;;3.95;100.00;102499.84;5146823;28;20037;-62
2022/12/02 03:07:15;;;;;;;80.93;57.63;;;;;;;3.72;100.00;102458.84;5147072;28;20038;-64
2022/12/02 03:09:46;;;;;;;73.97;55.78;;;;;;;3.86;100.00;102484.84;5147530;28;20391;-66
2022/12/02 03:12:17;;;;;;;70.22;54.65;;;;;;;3.92;100.00;102486.81;5146368;28;20042;-66
2022/12/02 03:14:48;;;;;;;84.63;53.80;;;;;;;3.90;100.00;102479.97;5145610;28;20058;-66
2022/12/02 03:17:19;;;;;;;74.60;53.85;;;;;;;3.93;100.00;102485.81;5147153;28;20023;-65
2022/12/02 03:19:50;;;;;;;68.43;51.42;;;;;;;3.93;100.00;102485.00;5147152;28;20037;-65
2022/12/02 03:22:20;;;;;;;61.00;51.25;;;;;;;3.91;100.00;102477.13;5145038;28;20166;-66
2022/12/02 03:24:51;;;;;;;77.90;56.42;;;;;;;3.91;100.00;102471.78;5146702;28;20029;-63
2022/12/02 03:27:21;;;;;;;69.75;51.75;;;;;;;3.85;100.00;102463.63;5147539;28;20023;-66
2022/12/02 03:29:52;;;;;;;75.18;54.67;;;;;;;3.85;100.00;102466.28;5146820;28;20023;-66
2022/12/02 03:32:22;;;;;;;64.57;46.90;;;;;;;3.62;100.00;102428.81;5146632;28;20463;-66
2022/12/02 03:34:53;;;;;;;67.03;51.05;;;;;;;3.84;100.00;102460.13;5146273;28;20507;-64
2022/12/02 03:37:23;;;;;;;66.88;47.67;;;;;;;3.83;100.00;102457.63;5146598;28;20491;-65
2022/12/02 03:39:54;;;;;;;70.15;47.30;;;;;;;3.71;100.00;102438.47;5147090;28;20081;-65
2022/12/02 03:42:25;;;;;;;57.38;46.10;;;;;;;3.63;100.00;102441.16;5145451;28;20042;-69
2022/12/02 03:44:55;;;;;;;56.55;49.47;;;;;;;3.66;100.00;102440.81;5146359;28;20090;-64
2022/12/02 03:47:26;;;;;;;56.85;46.97;;;;;;;3.61;100.00;102433.31;5146070;28;20395;-65
2022/12/02 03:49:57;;;;;;;65.55;50.05;;;;;;;3.76;100.00;102460.13;5145339;28;20395;-66
2022/12/02 03:52:28;;;;;;;59.47;45.75;;;;;;;3.65;100.00;102441.81;5145459;28;20460;-64
2022/12/02 03:54:58;;;;;;;70.35;51.58;;;;;;;3.75;100.00;102452.31;5145778;28;20089;-66
2022/12/02 03:57:32;;;;;;;65.50;49.47;;;;;;;3.71;100.00;102435.81;5146443;28;20098;-65
2022/12/02 04:00:04;;;;;;;57.05;49.78;;;;;;;3.67;100.00;102431.81;5146339;28;20030;-65
2022/12/02 04:02:34;;;;;;;56.53;47.22;;;;;;;3.77;100.00;102452.97;5146158;28;20395;-62
2022/12/02 04:05:05;;;;;;;54.97;46.22;;;;;;;3.77;100.00;102451.13;5146522;28;20019;-66
2022/12/02 04:07:36;;;;;;;48.25;43.42;;;;;;;3.76;100.00;102452.13;5145921;28;20041;-66
2022/12/02 04:10:07;;;;;;;57.35;48.65;;;;;;;3.63;100.00;102419.78;5145990;28;20026;-66
2022/12/02 04:12:37;;;;;;;57.15;48.63;;;;;;;3.63;100.00;102423.28;5145058;28;20498;-66
2022/12/02 04:15:08;;;;;;;61.58;48.15;;;;;;;3.66;100.00;102428.28;5145946;28;20427;-65
2022/12/02 04:17:39;;;;;;;60.80;50.28;;;;;;;3.69;100.00;102429.78;5144683;28;20027;-66
2022/12/02 04:20:10;;;;;;;59.85;47.65;;;;;;;3.69;100.00;102435.13;5145766;28;20026;-65
2022/12/02 04:22:40;;;;;;;59.42;47.88;;;;;;;3.64;100.00;102421.47;5145615;28;20534;-66
2022/12/02 04:25:10;;;;;;;56.63;47.72;;;;;;;3.65;100.00;102431.97;5146186;28;20019;-66
2022/12/02 04:27:41;;;;;;;60.40;50.55;;;;;;;3.66;100.00;102419.44;5145881;28;20058;-66
2022/12/02 04:30:11;;;;;;;58.80;49.30;;;;;;;3.63;100.00;102419.78;5144527;28;20027;-67
2022/12/02 04:32:42;;;;;;;55.92;49.10;;;;;;;3.63;100.00;102414.44;5145327;28;20026;-64
2022/12/02 04:35:12;;;;;;;60.65;46.33;;;;;;;3.69;100.00;102421.78;5145875;28;20023;-66
2022/12/02 04:37:43;;;;;;;66.82;49.40;;;;;;;3.67;100.00;102421.94;5145520;28;20035;-66
2022/12/02 04:40:13;;;;;;;64.38;50.22;;;;;;;3.63;100.00;102420.63;5144697;28;20045;-66
2022/12/02 04:42:43;;;;;;;59.95;47.78;;;;;;;3.59;100.00;102413.13;5144925;28;20518;-67
2022/12/02 04:45:14;;;;;;;64.57;50.55;;;;;;;3.63;100.00;102425.13;5146051;28;20054;-68
2022/12/02 04:47:44;;;;;;;62.53;48.75;;;;;;;3.51;100.00;102407.78;5145282;28;20030;-63
2022/12/02 04:50:15;;;;;;;59.55;50.70;;;;;;;3.64;100.00;102432.16;5144756;28;20022;-65
2022/12/02 04:52:45;;;;;;;58.92;49.75;;;;;;;3.61;100.00;102413.78;5145612;28;20050;-66
2022/12/02 04:55:16;;;;;;;53.60;45.47;;;;;;;3.61;100.00;102419.97;5144508;28;20034;-68
2022/12/02 04:57:46;;;;;;;53.97;45.58;;;;;;;3.57;100.00;102413.28;5145750;28;20027;-65
2022/12/02 05:00:16;;;;;;;60.67;48.17;;;;;;;3.56;100.00;102413.47;5146358;28;20029;-66
2022/12/02 05:02:47;;;;;;;62.75;49.28;;;;;;;3.57;100.00;102412.47;5145114;28;20391;-62
2022/12/02 05:05:17;;;;;;;63.42;47.30;;;;;;;3.35;100.00;102374.81;5145484;28;20065;-64
2022/12/02 05:07:48;;;;;;;59.38;46.65;;;;;;;3.53;100.00;102408.47;5144944;28;20118;-66
2022/12/02 05:10:18;;;;;;;59.13;48.90;;;;;;;3.56;100.00;102408.13;5145052;28;20538;-66
2022/12/02 05:12:48;;;;;;;78.88;53.45;;;;;;;3.55;100.00;102398.44;5144150;28;20022;-65
2022/12/02 05:15:19;;;;;;;66.13;50.67;;;;;;;3.53;100.00;102397.78;5144724;28;20031;-66
2022/12/02 05:17:49;;;;;;;55.95;48.08;;;;;;;3.52;100.00;102404.13;5144521;28;20023;-66
2022/12/02 05:20:20;;;;;;;62.72;50.20;;;;;;;3.51;100.00;102394.44;5144977;28;20027;-64
2022/12/02 05:22:50;;;;;;;71.00;52.95;;;;;;;3.46;100.00;102383.47;5143398;28;20023;-63
2022/12/02 05:25:20;;;;;;;67.53;53.35;;;;;;;3.49;100.00;102393.78;5144673;28;20093;-64
2022/12/02 05:27:51;;;;;;;73.70;54.10;;;;;;;3.44;100.00;102393.47;5144633;28;20542;-66
2022/12/02 05:30:21;;;;;;;69.03;51.22;;;;;;;3.46;100.00;102392.31;5144780;28;20031;-65
2022/12/02 05:32:51;;;;;;;61.13;47.92;;;;;;;3.46;100.00;102396.81;5144076;28;20147;-66
2022/12/02 05:35:22;;;;;;;74.60;55.97;;;;;;;3.24;100.00;102383.16;5144284;28;20030;-65
2022/12/02 05:37:52;;;;;;;65.35;55.38;;;;;;;3.34;100.00;102407.84;5144423;28;20033;-66
2022/12/02 05:40:23;;;;;;;65.22;55.83;;;;;;;3.17;100.00;102382.22;5157156;23;20054;-67
2022/12/02 05:42:53;;;;;;;55.63;46.90;;;;;;;3.22;100.00;102390.50;5132411;28;20081;-66
2022/12/02 05:45:24;;;;;;;67.53;49.58;;;;;;;3.34;100.00;102410.53;5143860;28;20031;-66
2022/12/02 05:47:55;;;;;;;58.72;43.65;;;;;;;3.30;100.00;102408.34;5143532;28;20026;-67
2022/12/02 05:50:30;;;;;;;60.97;43.67;;;;;;;3.24;100.00;102406.38;5143421;28;20081;-67
2022/12/02 05:53:00;;;;;;;63.20;46.38;;;;;;;2.94;100.00;102366.03;5142725;28;20030;-66
2022/12/02 05:55:31;;;;;;;59.60;47.20;;;;;;;3.19;100.00;102411.38;5143214;28;20450;-66
2022/12/02 05:58:06;;;;;;;59.63;46.50;;;;;;;3.15;100.00;102397.56;5143472;28;20070;-67
2022/12/02 06:00:36;;;;;;;60.47;48.28;;;;;;;2.88;100.00;102363.25;5143169;28;20045;-67
2022/12/02 06:03:17;;;;;;;54.45;46.17;;;;;;;3.09;100.00;102411.56;5142744;28;20026;-66
2022/12/02 06:05:48;;;;;;;68.57;45.53;;;;;;;2.99;100.00;102401.06;5125610;28;20110;-67
2022/12/02 06:08:20;;;;;;;50.67;43.65;;;;;;;2.97;100.00;102400.41;5143350;28;20026;-67
2022/12/02 06:10:56;;;;;;;47.60;41.03;;;;;;;2.91;100.00;102400.22;5125894;28;20030;-66
2022/12/02 06:13:30;;;;;;;51.60;41.08;;;;;;;2.86;100.00;102399.94;5142326;28;20463;-67
2022/12/02 06:16:00;;;;;;;48.75;38.60;;;;;;;2.80;100.00;102403.25;5138878;28;20027;-67
2022/12/02 06:18:33;;;;;;;46.25;37.50;;;;;;;2.80;100.00;102405.91;5125749;28;20052;-67
2022/12/02 06:21:11;;;;;;;44.72;39.97;;;;;;;2.78;100.00;102416.75;5143062;28;20027;-67
2022/12/02 06:23:47;;;;;;;58.63;42.28;;;;;;;2.74;100.00;102427.91;5143133;28;20502;-67
2022/12/02 06:26:20;;;;;;;48.63;36.30;;;;;;;2.72;100.00;102426.25;5142206;28;20029;-66
2022/12/02 06:29:02;;;;;;;48.92;37.90;;;;;;;2.71;100.00;102423.75;5142886;28;20023;-67
2022/12/02 06:31:41;;;;;;;44.45;36.28;;;;;;;2.66;100.00;102421.56;5142748;28;20022;-67
2022/12/02 06:34:23;;;;;;;46.58;35.95;;;;;;;2.68;100.00;102419.56;5143573;28;20029;-66
2022/12/02 06:37:00;;;;;;;59.55;44.13;;;;;;;2.69;100.00;102402.56;5129912;28;20031;-67
2022/12/02 06:39:30;;;;;;;50.53;40.17;;;;;;;2.69;100.00;102399.91;5146177;28;20511;-66
2022/12/02 06:42:07;;;;;;;50.00;38.85;;;;;;;2.66;100.00;102394.06;5134801;28;20031;-66
2022/12/02 06:47:32;;;;;;;47.97;40.13;;;;;;;2.56;100.00;102409.41;5126494;28;20393;-66
2022/12/02 06:50:06;;;;;;;51.85;41.60;;;;;;;2.55;100.00;102416.59;5144223;28;20030;-67
2022/12/02 06:52:41;;;;;;;47.80;42.55;;;;;;;2.49;100.00;102403.91;5143131;28;20058;-67
2022/12/02 06:55:31;;;;;;;46.72;39.97;;;;;;;2.50;100.00;102413.56;5136276;28;20051;-66
2022/12/02 06:58:13;;;;;;;;;;;;;;;2.49;100.00;102409.25;5136208;28;20170;-66
2022/12/02 07:00:44;;;;;;;37.30;33.40;;;;;;;2.49;100.00;102408.41;5146386;28;20401;-66
2022/12/02 07:03:34;;;;;;;58.00;38.33;;;;;;;2.24;100.00;102378.22;5233913;23;21107;-82
2022/12/02 07:06:15;;;;;;;;;;;;;;;2.46;100.00;102430.06;5163026;28;20022;-85
2022/12/02 07:08:45;;;;;;;47.17;37.70;;;;;;;2.50;100.00;102421.56;5175210;28;19916;-82
2022/12/02 07:11:49;;;;;;;44.08;35.67;;;;;;;2.43;100.00;102404.56;5177921;28;20109;-82
2022/12/02 07:14:46;;;;;;;40.67;34.03;;;;;;;2.46;100.00;102414.06;5177483;28;20030;-82
2022/12/02 07:17:22;;;;;;;47.13;32.60;;;;;;;2.46;100.00;102414.06;5174597;28;20098;-81
2022/12/02 07:20:01;;;;;;;43.75;30.90;;;;;;;2.43;100.00;102412.56;5173623;28;20452;-80
2022/12/02 07:22:33;;;;;;;44.23;36.10;;;;;;;1.97;100.00;102347.34;5173199;28;20101;-81
2022/12/02 07:25:03;;;;;;;34.92;29.15;;;;;;;2.45;100.00;102413.22;5174606;28;20269;-81
2022/12/02 07:27:39;;;;;;;36.30;32.55;;;;;;;2.40;100.00;102398.72;5180610;28;20081;-81
2022/12/02 07:30:31;;;;;;;41.00;33.40;;;;;;;2.31;100.00;102379.22;5177296;28;20031;-82
2022/12/02 07:33:02;;;;;;;44.03;35.03;;;;;;;2.07;100.00;102344.53;5177348;28;20030;-83
2022/12/02 07:35:32;;;;;;;46.42;35.95;;;;;;;2.35;100.00;102396.53;5175796;28;20403;-82
2022/12/02 07:38:03;;;;;;;41.55;33.47;;;;;;;2.26;100.00;102378.88;5175978;28;20045;-85
2022/12/02 07:40:33;;;;;;;37.40;32.10;;;;;;;2.34;100.00;102395.72;5175517;28;20033;-82
2022/12/02 07:43:03;;;;;;;36.38;31.42;;;;;;;2.13;100.00;102359.88;5173430;28;20034;-82
2022/12/02 07:45:34;;;;;;;37.78;31.48;;;;;;;2.40;100.00;102412.03;5175001;28;20431;-82
2022/12/02 07:48:05;;;;;;;31.73;28.58;;;;;;;2.11;100.00;102373.34;5174100;28;20026;-82
2022/12/02 07:50:35;;;;;;;36.33;31.50;;;;;;;2.07;100.00;102356.00;5173630;28;20030;-82
2022/12/02 07:53:06;;;;;;;34.47;30.85;;;;;;;2.34;100.00;102413.53;5174690;28;20085;-82
2022/12/02 07:55:36;;;;;;;38.28;29.02;;;;;;;2.36;100.00;102422.19;5174539;28;20022;-82
2022/12/02 07:58:06;;;;;;;44.10;35.13;;;;;;;2.32;100.00;102418.19;5178160;28;20444;-82
2022/12/02 08:00:37;;;;;;;30.98;27.65;;;;;;;2.33;100.00;102418.03;5178071;28;20054;-82
2022/12/02 08:03:07;;;;;;;45.70;31.38;;;;;;;2.07;100.00;102371.16;5179841;28;20036;-80
2022/12/02 08:05:38;;;;;;;34.03;29.90;;;;;;;2.32;100.00;102423.53;5187005;28;20026;-82
2022/12/02 08:08:08;;;;;;;39.28;28.90;;;;;;;1.98;100.00;102363.19;5167183;28;20035;-81
2022/12/02 08:14:50;;;;;;;34.55;26.85;;;;;;;2.33;100.00;102414.53;5160735;28;20070;-80
2022/12/02 08:17:21;;;;;;;38.88;27.42;;;;;;;1.55;100.00;102289.63;5167542;28;20054;-80
2022/12/02 08:19:51;;;;;;;36.95;30.52;;;;;;;2.12;100.00;102392.84;5168284;28;20034;-80
2022/12/02 08:22:22;;;;;;;35.33;29.42;;;;;;;2.21;100.00;102398.03;5166926;28;20023;-80
2022/12/02 08:24:54;;;;;;;42.05;28.63;;;;;;;2.22;100.00;102396.19;5164449;28;20022;-82
2022/12/02 08:27:24;;;;;;;42.78;31.17;;;;;;;2.26;100.00;102409.03;5155053;28;20059;-82
2022/12/02 08:29:55;;;;;;;35.90;28.75;;;;;;;2.20;100.00;102401.69;5155177;28;20026;-84
2022/12/02 08:32:25;;;;;;;34.42;30.88;;;;;;;2.34;100.00;102418.88;5153870;28;20022;-82
2022/12/02 08:34:56;;;;;;;34.92;31.45;;;;;;;2.35;100.00;102415.19;5153328;28;20023;-83
2022/12/02 08:37:26;;;;;;;39.90;31.05;;;;;;;2.36;100.00;102416.88;5153876;28;20027;-82
2022/12/02 08:39:57;;;;;;;38.85;29.33;;;;;;;2.25;100.00;102404.72;5154114;28;20106;-82
2022/12/02 08:42:27;;;;;;;40.10;32.50;;;;;;;2.17;100.00;102382.53;5154767;28;20033;-81
2022/12/02 08:44:57;;;;;;;32.80;29.33;;;;;;;2.40;100.00;102420.88;5154477;28;20050;-82
2022/12/02 08:47:28;;;;;;;34.70;27.00;;;;;;;2.38;100.00;102415.72;5154285;28;20062;-82
2022/12/02 08:49:58;;;;;;;35.92;29.60;;;;;;;2.38;100.00;102417.53;5153926;28;20090;-81
2022/12/02 08:52:29;;;;;;;36.53;27.75;;;;;;;2.36;100.00;102396.38;5160113;23;20047;-67
2022/12/02 08:54:59;;;;;;;31.92;28.67;;;;;;;2.40;100.00;102410.22;5126761;28;20023;-66
2022/12/02 08:57:29;;;;;;;38.20;30.20;;;;;;;2.36;100.00;102411.53;5126783;28;20035;-66
2022/12/02 09:00:00;;;;;;;39.30;28.23;;;;;;;2.33;100.00;102417.19;5126961;29;20015;-67
2022/12/02 09:02:30;;;;;;;33.70;27.02;;;;;;;2.12;100.00;102382.19;5126544;28;20023;-66
2022/12/02 09:05:01;;;;;;;31.67;26.38;;;;;;;2.08;100.00;102375.50;5126819;28;20035;-66
2022/12/02 09:07:31;;;;;;;29.05;25.92;;;;;;;2.30;100.00;102413.06;5126712;28;20062;-67
2022/12/02 09:10:03;;;;;;;28.40;25.42;;;;;;;2.26;100.00;102402.88;5126710;29;20114;-66
2022/12/02 09:12:34;;;;;;;34.83;28.33;;;;;;;2.32;100.00;102402.19;5124870;28;20086;-66
2022/12/02 09:15:05;;;;;;;29.88;26.70;;;;;;;2.37;100.00;102398.03;5126444;28;20035;-66
2022/12/02 09:17:36;;;;;;;34.47;29.98;;;;;;;2.40;100.00;102399.56;5125806;28;20038;-66
2022/12/02 09:20:06;;;;;;;35.83;28.35;;;;;;;2.40;100.00;102399.56;5126215;29;20427;-66
2022/12/02 09:22:37;;;;;;;38.45;31.65;;;;;;;2.44;100.00;102405.41;5126825;28;20034;-66
2022/12/02 09:25:07;;;;;;;33.28;26.73;;;;;;;2.47;100.00;102397.91;5127851;29;20023;-65
2022/12/02 09:27:38;;;;;;;35.63;27.92;;;;;;;2.46;100.00;102393.56;5128112;28;20496;-66
2022/12/02 09:30:10;;;;;;;28.45;25.58;;;;;;;2.23;100.00;102365.88;5127167;28;20019;-67
2022/12/02 09:32:40;;;;;;;29.83;26.67;;;;;;;2.49;100.00;102397.75;5126670;28;20032;-65
2022/12/02 09:35:11;;;;;;;46.33;28.23;;;;;;;2.51;100.00;102403.75;5128382;29;20361;-67
2022/12/02 09:37:42;;;;;;;39.63;28.02;;;;;;;2.53;100.00;102394.59;5128882;28;20063;-66
2022/12/02 09:40:13;;;;;;;34.13;24.23;;;;;;;2.51;100.00;102395.75;5127591;29;20055;-66
2022/12/02 09:42:44;;;;;;;30.33;26.95;;;;;;;2.09;100.00;102326.53;5125654;28;20505;-66
2022/12/02 09:45:15;;;;;;;36.70;27.77;;;;;;;2.50;100.00;102391.41;5127847;28;20106;-66
2022/12/02 09:47:45;;;;;;;37.20;26.98;;;;;;;2.37;100.00;102375.88;5129992;28;20034;-66
2022/12/02 09:50:16;;;;;;;32.30;26.95;;;;;;;2.50;100.00;102392.25;5129403;29;20369;-66
2022/12/02 09:52:47;;;;;;;30.25;25.55;;;;;;;2.55;100.00;102399.75;5129693;28;20059;-66
2022/12/02 09:55:19;;;;;;;29.92;25.88;;;;;;;2.28;100.00;102352.91;5136018;23;20023;-67
2022/12/02 09:57:49;;;;;;;29.70;26.73;;;;;;;2.58;100.00;102397.59;5133408;28;20559;-66
2022/12/02 10:00:21;;;;;;;38.53;31.73;;;;;;;2.57;100.00;102387.91;5121320;29;20184;-65
2022/12/02 10:02:53;;;;;;;31.83;27.20;;;;;;;2.59;100.00;102391.25;5122190;28;20031;-67
2022/12/02 10:05:26;;;;;;;38.05;28.48;;;;;;;2.61;100.00;102386.56;5122851;28;20035;-66
2022/12/02 10:07:58;;;;;;;37.05;27.25;;;;;;;2.65;100.00;102379.91;5122725;28;20372;-66
2022/12/02 10:10:36;;;;;;;54.83;29.00;;;;;;;2.70;100.00;102382.91;5125987;28;20547;-64
2022/12/02 10:13:11;;;;;;;39.13;28.42;;;;;;;2.49;100.00;102366.56;5126665;28;20031;-65
2022/12/02 10:15:42;;;;;;;30.08;25.00;;;;;;;2.64;100.00;102366.72;5127379;28;20110;-65
2022/12/02 10:18:16;;;;;;;37.58;27.27;;;;;;;2.75;100.00;102382.41;5126897;28;20043;-65
2022/12/02 10:20:49;;;;;;;26.65;22.60;;;;;;;2.77;100.00;102374.25;5126661;28;20078;-66
2022/12/02 10:23:20;;;;;;;30.48;24.48;;;;;;;2.57;100.00;102342.59;5125900;28;20078;-65
2022/12/02 10:26:12;;;;;;;29.90;25.17;;;;;;;2.76;100.00;102368.06;5125416;29;20117;-65
2022/12/02 10:28:58;;;;;;;25.02;22.35;;;;;;;2.79;100.00;102372.25;5126297;28;20033;-66
2022/12/02 10:31:28;;;;;;;28.52;25.67;;;;;;;2.72;100.00;102367.56;5126570;28;20055;-68
2022/12/02 10:34:05;;;;;;;27.23;24.48;;;;;;;2.72;100.00;102356.06;5126604;28;20062;-67
2022/12/02 10:36:37;;;;;;;30.73;24.05;;;;;;;2.50;100.00;102312.25;5127227;28;20046;-66
2022/12/02 10:39:23;;;;;;;25.17;22.63;;;;;;;2.79;100.00;102357.06;5125720;28;20058;-67
2022/12/02 10:42:20;;;;;;;27.88;23.75;;;;;;;2.81;100.00;102343.56;5126057;29;20035;-67
2022/12/02 10:45:33;;;;;;;33.88;24.83;;;;;;;2.76;100.00;102351.22;5122836;28;20051;-68
2022/12/02 10:48:15;;;;;;;35.35;27.17;;;;;;;2.76;100.00;102354.72;5122384;29;20540;-66
2022/12/02 10:50:45;;;;;;;27.13;24.30;;;;;;;2.73;100.00;102357.72;5126436;28;20097;-66
2022/12/02 10:53:17;;;;;;;30.55;24.27;;;;;;;2.60;100.00;102344.88;5125661;28;20031;-65
2022/12/02 10:55:47;;;;;;;24.33;22.00;;;;;;;2.68;100.00;102344.91;5125917;28;20067;-67
2022/12/02 10:58:29;;;;;;;26.83;23.83;;;;;;;2.70;100.00;102348.22;5125763;28;20110;-67
2022/12/02 11:01:00;;;;;;;24.90;22.02;;;;;;;2.70;100.00;102344.72;5126253;28;20081;-66
2022/12/02 11:03:30;;;;;;;26.15;23.27;;;;;;;2.72;100.00;102346.22;5125903;28;20086;-66
2022/12/02 11:06:04;;;;;;;28.65;25.98;;;;;;;2.77;100.00;102334.22;5126162;28;20476;-68
2022/12/02 11:08:35;;;;;;;28.45;25.20;;;;;;;2.44;100.00;102285.41;5125756;28;20042;-67
2022/12/02 11:11:35;;;;;;;27.48;21.92;;;;;;;2.76;100.00;102340.56;5126305;28;20492;-66
2022/12/02 11:14:08;;;;;;;;;;;;;;;2.71;100.00;102339.22;5125855;28;20543;-68
2022/12/02 11:16:39;;;;;;;36.35;22.42;;;;;;;2.71;100.00;102339.22;5125859;28;20447;-67
2022/12/02 11:19:12;;;;;;;27.77;22.30;;;;;;;2.70;100.00;102337.56;5124512;29;20126;-66
2022/12/02 11:21:44;;;;;;;30.45;25.05;;;;;;;2.66;100.00;102330.91;5124700;28;20027;-67
2022/12/02 11:24:26;;;;;;;23.48;21.08;;;;;;;2.64;100.00;102335.56;5125237;28;20023;-65
2022/12/02 11:27:02;;;;;;;22.85;20.58;;;;;;;2.56;100.00;102340.09;5125487;29;20058;-65
2022/12/02 11:29:41;;;;;;;27.38;23.50;;;;;;;2.53;100.00;102327.91;5125589;28;20031;-65
2022/12/02 11:32:20;;;;;;;27.05;20.42;;;;;;;2.48;100.00;102332.91;5125116;28;20559;-66
2022/12/02 11:34:57;;;;;;;26.58;20.85;;;;;;;2.47;100.00;102333.06;5125351;28;20509;-68
2022/12/02 11:37:35;;;;;;;28.25;24.80;;;;;;;2.45;100.00;102333.25;5125072;28;20507;-68
2022/12/02 11:40:31;;;;;;;30.25;24.55;;;;;;;2.45;100.00;102330.56;5125467;28;20029;-67
2022/12/02 11:43:40;;;;;;;23.85;19.50;;;;;;;2.47;100.00;102325.91;5133238;23;20054;-65
2022/12/02 11:46:15;;;;;;;27.90;18.85;;;;;;;2.47;100.00;102315.25;5106388;29;20458;-66
2022/12/02 11:48:50;;;;;;;32.30;24.40;;;;;;;2.57;100.00;102310.59;5105484;29;20444;-65